sensor_id;sensor_type;location;lat;lon;timestamp;temperature;humidity
14317;DHT22;7242;50.858;6.586;2022-08-03T00:00:08;20.80;99.90
14317;DHT22;7242;50.858;6.586;2022-08-03T00:03:13;20.80;99.90
14317;DHT22;7242;50.858;6.586;2022-08-03T00:06:13;20.90;99.90
14317;DHT22;7242;50.858;6.586;2022-08-03T00:09:14;20.90;99.90
14317;DHT22;7242;50.858;6.586;2022-08-03T00:15:16;20.80;99.90
14317;DHT22;7242;50.858;6.586;2022-08-03T00:18:17;20.80;99.90
14317;DHT22;7242;50.858;6.586;2022-08-03T00:21:17;20.70;99.90
14317;DHT22;7242;50.858;6.586;2022-08-03T00:24:19;20.60;99.90
14317;DHT22;7242;50.858;6.586;2022-08-03T00:27:20;20.60;99.90
14317;DHT22;7242;50.858;6.586;2022-08-03T00:30:20;20.60;99.90
14317;DHT22;7242;50.858;6.586;2022-08-03T00:33:21;20.60;99.90
14317;DHT22;7242;50.858;6.586;2022-08-03T00:36:22;20.60;99.90
14317;DHT22;7242;50.858;6.586;2022-08-03T00:45:30;20.70;99.90
14317;DHT22;7242;50.858;6.586;2022-08-03T00:48:31;20.80;99.90
14317;DHT22;7242;50.858;6.586;2022-08-03T00:51:32;20.90;99.90
14317;DHT22;7242;50.858;6.586;2022-08-03T00:54:37;21.00;99.90
14317;DHT22;7242;50.858;6.586;2022-08-03T00:57:38;21.00;99.90
14317;DHT22;7242;50.858;6.586;2022-08-03T01:00:39;21.00;99.90
14317;DHT22;7242;50.858;6.586;2022-08-03T01:03:41;20.90;99.90
14317;DHT22;7242;50.858;6.586;2022-08-03T01:07:12;20.80;99.90
14317;DHT22;7242;50.858;6.586;2022-08-03T01:10:23;20.60;99.90
14317;DHT22;7242;50.858;6.586;2022-08-03T01:33:02;20.10;99.90
14317;DHT22;7242;50.858;6.586;2022-08-03T01:36:08;20.00;99.90
14317;DHT22;7242;50.858;6.586;2022-08-03T01:39:10;20.00;99.90
14317;DHT22;7242;50.858;6.586;2022-08-03T01:42:13;20.10;99.90
14317;DHT22;7242;50.858;6.586;2022-08-03T01:45:15;20.00;99.90
14317;DHT22;7242;50.858;6.586;2022-08-03T01:48:19;20.10;99.90
14317;DHT22;7242;50.858;6.586;2022-08-03T01:51:20;20.10;99.90
14317;DHT22;7242;50.858;6.586;2022-08-03T01:54:23;20.10;99.90
14317;DHT22;7242;50.858;6.586;2022-08-03T01:57:26;20.00;99.90
14317;DHT22;7242;50.858;6.586;2022-08-03T02:00:28;20.10;99.90
14317;DHT22;7242;50.858;6.586;2022-08-03T02:03:33;20.20;99.90
14317;DHT22;7242;50.858;6.586;2022-08-03T02:06:36;20.30;99.90
14317;DHT22;7242;50.858;6.586;2022-08-03T02:09:39;20.40;99.90
14317;DHT22;7242;50.858;6.586;2022-08-03T02:12:43;20.30;99.90
14317;DHT22;7242;50.858;6.586;2022-08-03T02:15:45;20.40;99.90
14317;DHT22;7242;50.858;6.586;2022-08-03T02:21:50;20.40;99.90
14317;DHT22;7242;50.858;6.586;2022-08-03T02:28:10;20.20;99.90
14317;DHT22;7242;50.858;6.586;2022-08-03T02:31:18;20.10;99.90
14317;DHT22;7242;50.858;6.586;2022-08-03T02:34:23;20.00;99.90
14317;DHT22;7242;50.858;6.586;2022-08-03T02:37:29;20.10;99.90
14317;DHT22;7242;50.858;6.586;2022-08-03T02:40:32;20.10;99.90
14317;DHT22;7242;50.858;6.586;2022-08-03T02:43:34;20.10;99.90
14317;DHT22;7242;50.858;6.586;2022-08-03T02:46:40;20.00;99.90
14317;DHT22;7242;50.858;6.586;2022-08-03T02:52:44;20.10;99.90
14317;DHT22;7242;50.858;6.586;2022-08-03T02:55:48;20.10;99.90
14317;DHT22;7242;50.858;6.586;2022-08-03T03:01:52;20.00;99.90
14317;DHT22;7242;50.858;6.586;2022-08-03T03:04:54;20.10;99.90
14317;DHT22;7242;50.858;6.586;2022-08-03T03:10:59;20.10;99.90
14317;DHT22;7242;50.858;6.586;2022-08-03T03:14:00;20.00;99.90
14317;DHT22;7242;50.858;6.586;2022-08-03T03:17:01;19.80;99.90
14317;DHT22;7242;50.858;6.586;2022-08-03T03:20:03;19.60;99.90
14317;DHT22;7242;50.858;6.586;2022-08-03T03:23:05;19.60;99.90
14317;DHT22;7242;50.858;6.586;2022-08-03T03:26:08;19.50;99.90
14317;DHT22;7242;50.858;6.586;2022-08-03T03:32:10;19.70;99.90
14317;DHT22;7242;50.858;6.586;2022-08-03T03:35:12;19.70;99.90
14317;DHT22;7242;50.858;6.586;2022-08-03T03:38:13;19.70;99.90
14317;DHT22;7242;50.858;6.586;2022-08-03T03:41:14;19.80;99.90
14317;DHT22;7242;50.858;6.586;2022-08-03T03:44:27;19.80;99.90
14317;DHT22;7242;50.858;6.586;2022-08-03T03:47:28;19.80;99.90
14317;DHT22;7242;50.858;6.586;2022-08-03T03:50:31;19.80;99.90
14317;DHT22;7242;50.858;6.586;2022-08-03T03:53:32;19.90;99.90
14317;DHT22;7242;50.858;6.586;2022-08-03T03:59:37;20.00;99.90
14317;DHT22;7242;50.858;6.586;2022-08-03T04:02:38;20.00;99.90
14317;DHT22;7242;50.858;6.586;2022-08-03T04:09:01;20.10;99.90
14317;DHT22;7242;50.858;6.586;2022-08-03T04:12:20;20.10;99.90
14317;DHT22;7242;50.858;6.586;2022-08-03T04:15:23;20.10;99.90
14317;DHT22;7242;50.858;6.586;2022-08-03T04:18:27;20.20;99.90
14317;DHT22;7242;50.858;6.586;2022-08-03T04:21:29;20.20;99.90
14317;DHT22;7242;50.858;6.586;2022-08-03T04:24:34;20.30;99.90
14317;DHT22;7242;50.858;6.586;2022-08-03T04:27:39;20.30;99.90
14317;DHT22;7242;50.858;6.586;2022-08-03T04:30:44;20.30;99.90
14317;DHT22;7242;50.858;6.586;2022-08-03T04:33:49;20.30;99.90
14317;DHT22;7242;50.858;6.586;2022-08-03T04:36:57;20.30;99.90
14317;DHT22;7242;50.858;6.586;2022-08-03T04:40:01;20.10;99.90
14317;DHT22;7242;50.858;6.586;2022-08-03T04:43:03;20.00;99.90
14317;DHT22;7242;50.858;6.586;2022-08-03T04:46:05;19.90;99.90
14317;DHT22;7242;50.858;6.586;2022-08-03T04:49:07;19.90;99.90
14317;DHT22;7242;50.858;6.586;2022-08-03T04:52:08;19.80;99.90
14317;DHT22;7242;50.858;6.586;2022-08-03T04:58:11;19.70;99.90
14317;DHT22;7242;50.858;6.586;2022-08-03T05:01:12;19.70;99.90
14317;DHT22;7242;50.858;6.586;2022-08-03T05:07:15;20.00;99.90
14317;DHT22;7242;50.858;6.586;2022-08-03T05:10:16;20.20;99.90
14317;DHT22;7242;50.858;6.586;2022-08-03T05:16:18;20.40;99.90
14317;DHT22;7242;50.858;6.586;2022-08-03T05:22:20;20.70;99.90
14317;DHT22;7242;50.858;6.586;2022-08-03T05:28:22;21.10;99.90
14317;DHT22;7242;50.858;6.586;2022-08-03T05:37:25;21.60;99.90
14317;DHT22;7242;50.858;6.586;2022-08-03T05:43:27;21.80;99.90
14317;DHT22;7242;50.858;6.586;2022-08-03T05:49:29;21.50;99.90
14317;DHT22;7242;50.858;6.586;2022-08-03T05:52:29;21.20;99.90
14317;DHT22;7242;50.858;6.586;2022-08-03T05:58:31;21.20;99.90
14317;DHT22;7242;50.858;6.586;2022-08-03T06:01:32;21.40;99.90
14317;DHT22;7242;50.858;6.586;2022-08-03T06:07:34;21.50;99.90
14317;DHT22;7242;50.858;6.586;2022-08-03T06:13:36;21.60;99.90
14317;DHT22;7242;50.858;6.586;2022-08-03T06:19:38;21.90;99.90
14317;DHT22;7242;50.858;6.586;2022-08-03T06:22:39;21.90;99.90
14317;DHT22;7242;50.858;6.586;2022-08-03T06:28:43;22.20;99.90
14317;DHT22;7242;50.858;6.586;2022-08-03T06:31:45;22.40;99.90
14317;DHT22;7242;50.858;6.586;2022-08-03T06:34:45;22.60;99.90
14317;DHT22;7242;50.858;6.586;2022-08-03T06:37:48;22.70;99.90
14317;DHT22;7242;50.858;6.586;2022-08-03T06:40:49;23.00;99.90
14317;DHT22;7242;50.858;6.586;2022-08-03T06:43:50;23.40;99.90
14317;DHT22;7242;50.858;6.586;2022-08-03T06:49:52;24.20;99.90
14317;DHT22;7242;50.858;6.586;2022-08-03T06:55:54;25.50;99.90
14317;DHT22;7242;50.858;6.586;2022-08-03T07:01:56;27.50;99.90
14317;DHT22;7242;50.858;6.586;2022-08-03T07:04:56;29.50;99.90
14317;DHT22;7242;50.858;6.586;2022-08-03T07:10:59;34.10;99.90
14317;DHT22;7242;50.858;6.586;2022-08-03T07:14:00;36.30;99.90
14317;DHT22;7242;50.858;6.586;2022-08-03T07:17:00;37.10;99.90
14317;DHT22;7242;50.858;6.586;2022-08-03T07:20:04;37.10;99.90
14317;DHT22;7242;50.858;6.586;2022-08-03T07:23:05;38.00;99.90
14317;DHT22;7242;50.858;6.586;2022-08-03T07:26:06;38.00;97.20
14317;DHT22;7242;50.858;6.586;2022-08-03T07:29:07;39.20;94.70
14317;DHT22;7242;50.858;6.586;2022-08-03T07:32:08;40.60;92.70
14317;DHT22;7242;50.858;6.586;2022-08-03T07:35:09;40.60;93.00
14317;DHT22;7242;50.858;6.586;2022-08-03T07:38:10;42.20;90.00
14317;DHT22;7242;50.858;6.586;2022-08-03T07:41:11;43.00;82.50
14317;DHT22;7242;50.858;6.586;2022-08-03T07:44:12;43.90;78.60
14317;DHT22;7242;50.858;6.586;2022-08-03T07:47:18;44.90;70.30
14317;DHT22;7242;50.858;6.586;2022-08-03T07:50:20;44.90;70.90
14317;DHT22;7242;50.858;6.586;2022-08-03T07:53:21;46.10;66.50
14317;DHT22;7242;50.858;6.586;2022-08-03T07:56:23;46.10;67.00
14317;DHT22;7242;50.858;6.586;2022-08-03T07:59:26;46.70;63.70
14317;DHT22;7242;50.858;6.586;2022-08-03T08:02:27;46.80;61.20
14317;DHT22;7242;50.858;6.586;2022-08-03T08:05:28;47.50;59.00
14317;DHT22;7242;50.858;6.586;2022-08-03T08:08:29;47.50;59.40
14317;DHT22;7242;50.858;6.586;2022-08-03T08:11:30;47.90;58.00
14317;DHT22;7242;50.858;6.586;2022-08-03T08:14:31;47.20;56.20
14317;DHT22;7242;50.858;6.586;2022-08-03T08:17:46;47.00;56.00
14317;DHT22;7242;50.858;6.586;2022-08-03T08:20:47;47.00;55.40
14317;DHT22;7242;50.858;6.586;2022-08-03T08:23:47;46.80;55.40
14317;DHT22;7242;50.858;6.586;2022-08-03T08:29:49;44.60;56.70
14317;DHT22;7242;50.858;6.586;2022-08-03T08:32:52;43.10;58.10
14317;DHT22;7242;50.858;6.586;2022-08-03T08:38:53;39.70;62.20
14317;DHT22;7242;50.858;6.586;2022-08-03T08:41:54;38.90;64.90
14317;DHT22;7242;50.858;6.586;2022-08-03T08:47:57;37.70;66.90
14317;DHT22;7242;50.858;6.586;2022-08-03T08:50:59;37.30;68.70
14317;DHT22;7242;50.858;6.586;2022-08-03T08:54:01;36.30;70.10
14317;DHT22;7242;50.858;6.586;2022-08-03T08:57:03;36.10;71.60
14317;DHT22;7242;50.858;6.586;2022-08-03T09:00:06;35.50;72.80
14317;DHT22;7242;50.858;6.586;2022-08-03T09:03:10;35.20;75.20
14317;DHT22;7242;50.858;6.586;2022-08-03T09:06:11;35.00;75.40
14317;DHT22;7242;50.858;6.586;2022-08-03T09:12:13;34.20;76.60
14317;DHT22;7242;50.858;6.586;2022-08-03T09:15:25;33.60;77.30
14317;DHT22;7242;50.858;6.586;2022-08-03T09:18:29;33.50;78.90
14317;DHT22;7242;50.858;6.586;2022-08-03T09:21:30;33.40;79.30
14317;DHT22;7242;50.858;6.586;2022-08-03T09:24:30;33.30;80.00
14317;DHT22;7242;50.858;6.586;2022-08-03T09:27:42;33.30;80.60
14317;DHT22;7242;50.858;6.586;2022-08-03T09:30:45;33.50;81.00
14317;DHT22;7242;50.858;6.586;2022-08-03T09:34:00;33.60;80.70
14317;DHT22;7242;50.858;6.586;2022-08-03T09:40:03;33.40;79.90
14317;DHT22;7242;50.858;6.586;2022-08-03T09:43:05;33.40;81.10
14317;DHT22;7242;50.858;6.586;2022-08-03T09:46:07;33.40;81.80
14317;DHT22;7242;50.858;6.586;2022-08-03T09:49:09;33.50;81.80
14317;DHT22;7242;50.858;6.586;2022-08-03T09:52:16;33.50;81.80
14317;DHT22;7242;50.858;6.586;2022-08-03T09:55:18;33.60;80.90
14317;DHT22;7242;50.858;6.586;2022-08-03T09:58:25;33.40;81.50
14317;DHT22;7242;50.858;6.586;2022-08-03T10:01:32;33.40;81.10
14317;DHT22;7242;50.858;6.586;2022-08-03T10:04:46;33.50;81.40
14317;DHT22;7242;50.858;6.586;2022-08-03T10:07:48;33.70;82.50
14317;DHT22;7242;50.858;6.586;2022-08-03T10:10:50;33.60;81.30
14317;DHT22;7242;50.858;6.586;2022-08-03T10:13:54;33.50;81.00
14317;DHT22;7242;50.858;6.586;2022-08-03T10:16:55;33.30;80.50
14317;DHT22;7242;50.858;6.586;2022-08-03T10:26:03;33.20;79.80
14317;DHT22;7242;50.858;6.586;2022-08-03T10:29:11;33.30;79.90
14317;DHT22;7242;50.858;6.586;2022-08-03T10:35:53;33.30;81.70
14317;DHT22;7242;50.858;6.586;2022-08-03T10:38:55;33.40;81.10
14317;DHT22;7242;50.858;6.586;2022-08-03T10:41:57;33.50;82.30
14317;DHT22;7242;50.858;6.586;2022-08-03T10:45:06;33.60;80.30
14317;DHT22;7242;50.858;6.586;2022-08-03T10:48:10;33.60;80.50
14317;DHT22;7242;50.858;6.586;2022-08-03T10:51:12;33.50;79.90
14317;DHT22;7242;50.858;6.586;2022-08-03T10:57:52;33.60;80.30
14317;DHT22;7242;50.858;6.586;2022-08-03T11:00:53;33.50;80.10
14317;DHT22;7242;50.858;6.586;2022-08-03T11:07:20;33.50;80.80
14317;DHT22;7242;50.858;6.586;2022-08-03T11:10:31;33.40;81.40
14317;DHT22;7242;50.858;6.586;2022-08-03T11:16:47;33.60;79.70
14317;DHT22;7242;50.858;6.586;2022-08-03T11:19:51;33.60;80.90
14317;DHT22;7242;50.858;6.586;2022-08-03T11:22:52;33.70;80.40
14317;DHT22;7242;50.858;6.586;2022-08-03T11:26:18;33.60;79.90
14317;DHT22;7242;50.858;6.586;2022-08-03T11:29:28;33.70;79.60
14317;DHT22;7242;50.858;6.586;2022-08-03T11:35:58;33.60;79.30
14317;DHT22;7242;50.858;6.586;2022-08-03T11:39:12;33.70;80.10
14317;DHT22;7242;50.858;6.586;2022-08-03T11:45:28;33.60;79.90
14317;DHT22;7242;50.858;6.586;2022-08-03T11:48:36;33.60;80.10
14317;DHT22;7242;50.858;6.586;2022-08-03T11:51:37;33.70;80.00
14317;DHT22;7242;50.858;6.586;2022-08-03T11:57:41;33.70;79.00
14317;DHT22;7242;50.858;6.586;2022-08-03T12:00:42;33.70;79.20
14317;DHT22;7242;50.858;6.586;2022-08-03T12:03:43;33.50;79.90
14317;DHT22;7242;50.858;6.586;2022-08-03T12:07:00;33.50;80.60
14317;DHT22;7242;50.858;6.586;2022-08-03T12:10:14;33.50;80.40
14317;DHT22;7242;50.858;6.586;2022-08-03T12:13:16;33.50;79.20
14317;DHT22;7242;50.858;6.586;2022-08-03T12:22:33;33.40;80.90
14317;DHT22;7242;50.858;6.586;2022-08-03T12:25:36;33.50;80.30
14317;DHT22;7242;50.858;6.586;2022-08-03T12:28:46;33.40;80.20
14317;DHT22;7242;50.858;6.586;2022-08-03T12:31:47;33.50;80.20
14317;DHT22;7242;50.858;6.586;2022-08-03T12:37:50;33.40;80.30
14317;DHT22;7242;50.858;6.586;2022-08-03T12:40:59;33.50;80.70
14317;DHT22;7242;50.858;6.586;2022-08-03T12:44:01;33.50;80.50
14317;DHT22;7242;50.858;6.586;2022-08-03T12:47:03;33.60;80.10
14317;DHT22;7242;50.858;6.586;2022-08-03T12:50:06;33.60;80.00
14317;DHT22;7242;50.858;6.586;2022-08-03T12:53:08;33.70;80.50
14317;DHT22;7242;50.858;6.586;2022-08-03T12:59:24;33.50;78.70
14317;DHT22;7242;50.858;6.586;2022-08-03T13:14:31;33.50;80.00
14317;DHT22;7242;50.858;6.586;2022-08-03T13:17:32;33.60;79.10
14317;DHT22;7242;50.858;6.586;2022-08-03T13:20:33;33.60;78.50
14317;DHT22;7242;50.858;6.586;2022-08-03T13:26:35;33.80;79.50
14317;DHT22;7242;50.858;6.586;2022-08-03T13:29:36;33.80;79.60
14317;DHT22;7242;50.858;6.586;2022-08-03T13:32:37;33.80;78.80
14317;DHT22;7242;50.858;6.586;2022-08-03T13:41:40;33.90;78.60
14317;DHT22;7242;50.858;6.586;2022-08-03T13:50:43;34.30;78.80
14317;DHT22;7242;50.858;6.586;2022-08-03T13:53:44;34.20;78.70
14317;DHT22;7242;50.858;6.586;2022-08-03T13:56:45;34.10;78.70
14317;DHT22;7242;50.858;6.586;2022-08-03T14:02:53;34.00;78.00
14317;DHT22;7242;50.858;6.586;2022-08-03T14:05:53;33.80;78.40
14317;DHT22;7242;50.858;6.586;2022-08-03T14:11:55;33.90;77.80
14317;DHT22;7242;50.858;6.586;2022-08-03T14:14:56;33.80;78.10
14317;DHT22;7242;50.858;6.586;2022-08-03T14:17:57;33.90;78.60
14317;DHT22;7242;50.858;6.586;2022-08-03T14:23:59;33.70;78.80
14317;DHT22;7242;50.858;6.586;2022-08-03T14:27:00;33.80;79.40
14317;DHT22;7242;50.858;6.586;2022-08-03T14:30:00;33.80;78.70
14317;DHT22;7242;50.858;6.586;2022-08-03T14:36:03;34.00;78.90
14317;DHT22;7242;50.858;6.586;2022-08-03T14:45:06;34.00;78.30
14317;DHT22;7242;50.858;6.586;2022-08-03T14:51:08;34.10;78.40
14317;DHT22;7242;50.858;6.586;2022-08-03T14:54:09;34.10;77.70
14317;DHT22;7242;50.858;6.586;2022-08-03T14:57:10;34.10;78.20
14317;DHT22;7242;50.858;6.586;2022-08-03T15:00:11;34.00;77.70
14317;DHT22;7242;50.858;6.586;2022-08-03T15:03:12;34.00;77.50
14317;DHT22;7242;50.858;6.586;2022-08-03T15:06:13;33.80;78.30
14317;DHT22;7242;50.858;6.586;2022-08-03T15:09:14;33.70;78.50
14317;DHT22;7242;50.858;6.586;2022-08-03T15:12:14;33.60;78.80
14317;DHT22;7242;50.858;6.586;2022-08-03T15:15:15;33.50;79.60
14317;DHT22;7242;50.858;6.586;2022-08-03T15:18:16;33.40;80.40
14317;DHT22;7242;50.858;6.586;2022-08-03T15:21:17;33.30;79.90
14317;DHT22;7242;50.858;6.586;2022-08-03T15:27:19;33.20;80.00
14317;DHT22;7242;50.858;6.586;2022-08-03T15:33:20;33.00;81.30
14317;DHT22;7242;50.858;6.586;2022-08-03T15:36:21;32.90;81.40
14317;DHT22;7242;50.858;6.586;2022-08-03T15:42:23;32.90;81.50
14317;DHT22;7242;50.858;6.586;2022-08-03T15:45:24;32.90;82.20
14317;DHT22;7242;50.858;6.586;2022-08-03T15:48:25;32.90;82.50
14317;DHT22;7242;50.858;6.586;2022-08-03T15:51:25;32.80;81.70
14317;DHT22;7242;50.858;6.586;2022-08-03T15:54:26;32.80;81.50
14317;DHT22;7242;50.858;6.586;2022-08-03T15:57:27;32.80;81.40
14317;DHT22;7242;50.858;6.586;2022-08-03T16:00:28;32.80;82.00
14317;DHT22;7242;50.858;6.586;2022-08-03T16:03:29;32.70;82.40
14317;DHT22;7242;50.858;6.586;2022-08-03T16:06:34;32.70;83.10
14317;DHT22;7242;50.858;6.586;2022-08-03T16:09:34;32.70;83.30
14317;DHT22;7242;50.858;6.586;2022-08-03T16:12:36;32.60;83.20
14317;DHT22;7242;50.858;6.586;2022-08-03T16:15:37;32.70;83.50
14317;DHT22;7242;50.858;6.586;2022-08-03T16:18:38;32.70;82.80
14317;DHT22;7242;50.858;6.586;2022-08-03T16:21:39;32.70;82.10
14317;DHT22;7242;50.858;6.586;2022-08-03T16:27:41;32.60;82.40
14317;DHT22;7242;50.858;6.586;2022-08-03T16:30:44;32.60;82.30
14317;DHT22;7242;50.858;6.586;2022-08-03T16:33:45;32.40;82.90
14317;DHT22;7242;50.858;6.586;2022-08-03T16:36:45;32.40;82.90
14317;DHT22;7242;50.858;6.586;2022-08-03T16:48:49;32.10;85.30
14317;DHT22;7242;50.858;6.586;2022-08-03T16:51:50;32.10;84.30
14317;DHT22;7242;50.858;6.586;2022-08-03T16:54:52;32.20;83.20
14317;DHT22;7242;50.858;6.586;2022-08-03T16:57:53;32.20;84.10
14317;DHT22;7242;50.858;6.586;2022-08-03T17:00:53;32.30;83.10
14317;DHT22;7242;50.858;6.586;2022-08-03T17:03:57;32.30;83.30
14317;DHT22;7242;50.858;6.586;2022-08-03T17:06:59;32.30;82.90
14317;DHT22;7242;50.858;6.586;2022-08-03T17:13:01;32.40;83.60
14317;DHT22;7242;50.858;6.586;2022-08-03T17:16:03;32.40;82.20
14317;DHT22;7242;50.858;6.586;2022-08-03T17:19:05;32.50;81.30
14317;DHT22;7242;50.858;6.586;2022-08-03T17:22:13;32.50;80.70
14317;DHT22;7242;50.858;6.586;2022-08-03T17:25:14;32.50;79.90
14317;DHT22;7242;50.858;6.586;2022-08-03T17:28:17;32.60;79.80
14317;DHT22;7242;50.858;6.586;2022-08-03T17:40:25;32.40;80.70
14317;DHT22;7242;50.858;6.586;2022-08-03T17:46:28;32.40;80.60
14317;DHT22;7242;50.858;6.586;2022-08-03T17:49:28;32.40;80.90
14317;DHT22;7242;50.858;6.586;2022-08-03T17:52:34;32.40;80.10
14317;DHT22;7242;50.858;6.586;2022-08-03T17:55:43;32.30;80.60
14317;DHT22;7242;50.858;6.586;2022-08-03T17:59:17;32.30;81.00
14317;DHT22;7242;50.858;6.586;2022-08-03T18:05:47;32.10;81.40
14317;DHT22;7242;50.858;6.586;2022-08-03T18:08:51;32.10;81.50
14317;DHT22;7242;50.858;6.586;2022-08-03T18:11:56;32.10;82.10
14317;DHT22;7242;50.858;6.586;2022-08-03T18:14:59;32.00;82.60
14317;DHT22;7242;50.858;6.586;2022-08-03T18:18:06;31.90;83.00
14317;DHT22;7242;50.858;6.586;2022-08-03T18:21:08;31.80;83.00
14317;DHT22;7242;50.858;6.586;2022-08-03T18:24:10;31.70;83.20
14317;DHT22;7242;50.858;6.586;2022-08-03T18:27:13;31.60;83.10
14317;DHT22;7242;50.858;6.586;2022-08-03T18:33:16;31.50;82.70
14317;DHT22;7242;50.858;6.586;2022-08-03T18:36:18;31.40;83.70
14317;DHT22;7242;50.858;6.586;2022-08-03T18:45:22;31.10;85.30
14317;DHT22;7242;50.858;6.586;2022-08-03T18:48:54;31.00;85.70
14317;DHT22;7242;50.858;6.586;2022-08-03T18:52:04;30.90;86.20
14317;DHT22;7242;50.858;6.586;2022-08-03T18:56:02;30.80;86.50
14317;DHT22;7242;50.858;6.586;2022-08-03T18:59:32;30.60;87.20
14317;DHT22;7242;50.858;6.586;2022-08-03T19:02:48;30.50;87.90
14317;DHT22;7242;50.858;6.586;2022-08-03T19:05:57;30.40;88.30
14317;DHT22;7242;50.858;6.586;2022-08-03T19:09:05;30.30;89.20
14317;DHT22;7242;50.858;6.586;2022-08-03T19:12:16;30.20;89.50
14317;DHT22;7242;50.858;6.586;2022-08-03T19:15:19;30.10;89.80
14317;DHT22;7242;50.858;6.586;2022-08-03T19:18:21;30.00;90.00
14317;DHT22;7242;50.858;6.586;2022-08-03T19:21:22;29.90;90.30
14317;DHT22;7242;50.858;6.586;2022-08-03T19:24:25;29.80;90.30
14317;DHT22;7242;50.858;6.586;2022-08-03T19:27:37;29.60;90.70
14317;DHT22;7242;50.858;6.586;2022-08-03T19:30:38;29.60;91.00
14317;DHT22;7242;50.858;6.586;2022-08-03T19:36:41;29.40;91.80
14317;DHT22;7242;50.858;6.586;2022-08-03T19:39:42;29.30;92.20
14317;DHT22;7242;50.858;6.586;2022-08-03T19:42:44;29.20;92.40
14317;DHT22;7242;50.858;6.586;2022-08-03T19:45:46;29.20;92.40
14317;DHT22;7242;50.858;6.586;2022-08-03T19:49:04;29.10;92.50
14317;DHT22;7242;50.858;6.586;2022-08-03T19:52:08;29.00;92.80
14317;DHT22;7242;50.858;6.586;2022-08-03T19:55:10;28.90;93.00
14317;DHT22;7242;50.858;6.586;2022-08-03T19:58:11;28.80;92.80
14317;DHT22;7242;50.858;6.586;2022-08-03T20:01:13;28.80;93.00
14317;DHT22;7242;50.858;6.586;2022-08-03T20:04:14;28.70;93.10
14317;DHT22;7242;50.858;6.586;2022-08-03T20:10:17;28.60;93.60
14317;DHT22;7242;50.858;6.586;2022-08-03T20:13:18;28.50;93.70
14317;DHT22;7242;50.858;6.586;2022-08-03T20:16:19;28.50;94.10
14317;DHT22;7242;50.858;6.586;2022-08-03T20:22:26;28.40;94.60
14317;DHT22;7242;50.858;6.586;2022-08-03T20:25:30;28.40;94.80
14317;DHT22;7242;50.858;6.586;2022-08-03T20:28:37;28.30;95.00
14317;DHT22;7242;50.858;6.586;2022-08-03T20:31:39;28.30;95.40
14317;DHT22;7242;50.858;6.586;2022-08-03T20:34:40;28.20;95.70
14317;DHT22;7242;50.858;6.586;2022-08-03T20:37:41;28.10;96.20
14317;DHT22;7242;50.858;6.586;2022-08-03T20:43:44;28.00;96.80
14317;DHT22;7242;50.858;6.586;2022-08-03T20:46:45;27.90;97.20
14317;DHT22;7242;50.858;6.586;2022-08-03T20:49:45;27.80;97.80
14317;DHT22;7242;50.858;6.586;2022-08-03T20:52:47;27.70;98.30
14317;DHT22;7242;50.858;6.586;2022-08-03T20:55:48;27.60;98.90
14317;DHT22;7242;50.858;6.586;2022-08-03T20:58:50;27.70;99.70
14317;DHT22;7242;50.858;6.586;2022-08-03T21:04:52;27.50;99.90
14317;DHT22;7242;50.858;6.586;2022-08-03T21:07:56;27.40;99.90
14317;DHT22;7242;50.858;6.586;2022-08-03T21:11:03;27.30;99.90
14317;DHT22;7242;50.858;6.586;2022-08-03T21:14:17;27.20;99.90
14317;DHT22;7242;50.858;6.586;2022-08-03T21:17:20;27.20;99.90
14317;DHT22;7242;50.858;6.586;2022-08-03T21:20:26;27.10;99.90
14317;DHT22;7242;50.858;6.586;2022-08-03T21:23:28;27.00;99.90
14317;DHT22;7242;50.858;6.586;2022-08-03T21:26:32;26.90;99.90
14317;DHT22;7242;50.858;6.586;2022-08-03T21:29:36;26.90;99.90
14317;DHT22;7242;50.858;6.586;2022-08-03T21:32:37;26.80;99.90
14317;DHT22;7242;50.858;6.586;2022-08-03T21:35:39;26.70;99.90
14317;DHT22;7242;50.858;6.586;2022-08-03T21:41:43;26.60;99.90
14317;DHT22;7242;50.858;6.586;2022-08-03T21:44:43;26.40;99.90
14317;DHT22;7242;50.858;6.586;2022-08-03T21:47:44;26.30;99.90
14317;DHT22;7242;50.858;6.586;2022-08-03T21:50:47;26.10;99.90
14317;DHT22;7242;50.858;6.586;2022-08-03T21:53:51;26.00;99.90
14317;DHT22;7242;50.858;6.586;2022-08-03T21:56:53;25.90;99.90
14317;DHT22;7242;50.858;6.586;2022-08-03T22:00:07;25.90;99.90
14317;DHT22;7242;50.858;6.586;2022-08-03T22:03:14;25.90;99.90
14317;DHT22;7242;50.858;6.586;2022-08-03T22:06:15;25.80;99.90
14317;DHT22;7242;50.858;6.586;2022-08-03T22:09:16;25.80;99.90
14317;DHT22;7242;50.858;6.586;2022-08-03T22:12:22;25.70;99.90
14317;DHT22;7242;50.858;6.586;2022-08-03T22:15:23;25.80;99.90
14317;DHT22;7242;50.858;6.586;2022-08-03T22:18:24;25.80;99.90
14317;DHT22;7242;50.858;6.586;2022-08-03T22:21:27;25.80;99.90
14317;DHT22;7242;50.858;6.586;2022-08-03T22:24:30;25.80;99.90
14317;DHT22;7242;50.858;6.586;2022-08-03T22:27:34;25.80;99.90
14317;DHT22;7242;50.858;6.586;2022-08-03T22:30:39;25.80;99.90
14317;DHT22;7242;50.858;6.586;2022-08-03T22:33:42;25.80;99.90
14317;DHT22;7242;50.858;6.586;2022-08-03T22:36:43;25.80;99.90
14317;DHT22;7242;50.858;6.586;2022-08-03T22:42:45;25.80;99.90
14317;DHT22;7242;50.858;6.586;2022-08-03T22:45:50;25.70;99.90
14317;DHT22;7242;50.858;6.586;2022-08-03T22:51:52;25.60;99.90
14317;DHT22;7242;50.858;6.586;2022-08-03T22:54:54;25.60;99.90
14317;DHT22;7242;50.858;6.586;2022-08-03T22:57:55;25.60;99.90
14317;DHT22;7242;50.858;6.586;2022-08-03T23:01:06;25.60;99.90
14317;DHT22;7242;50.858;6.586;2022-08-03T23:04:07;25.60;99.90
14317;DHT22;7242;50.858;6.586;2022-08-03T23:07:13;25.50;99.90
14317;DHT22;7242;50.858;6.586;2022-08-03T23:10:16;25.30;99.90
14317;DHT22;7242;50.858;6.586;2022-08-03T23:13:18;25.30;99.90
14317;DHT22;7242;50.858;6.586;2022-08-03T23:16:20;25.10;99.90
14317;DHT22;7242;50.858;6.586;2022-08-03T23:19:24;25.10;99.90
14317;DHT22;7242;50.858;6.586;2022-08-03T23:22:25;25.00;99.90
14317;DHT22;7242;50.858;6.586;2022-08-03T23:25:26;25.00;99.90
14317;DHT22;7242;50.858;6.586;2022-08-03T23:28:27;25.00;99.90
14317;DHT22;7242;50.858;6.586;2022-08-03T23:34:32;25.10;99.90
14317;DHT22;7242;50.858;6.586;2022-08-03T23:37:53;25.00;99.90
14317;DHT22;7242;50.858;6.586;2022-08-03T23:40:56;25.00;99.90
14317;DHT22;7242;50.858;6.586;2022-08-03T23:44:01;24.90;99.90
14317;DHT22;7242;50.858;6.586;2022-08-03T23:47:02;24.90;99.90
14317;DHT22;7242;50.858;6.586;2022-08-03T23:50:03;24.90;99.90
14317;DHT22;7242;50.858;6.586;2022-08-03T23:53:21;24.90;99.90
